This is the latest recevied weather packets stored in our database for station/object WMSA. If no packets are shown the sender has not sent any weather packets the latest 10 day(s).
| Time | Temp. | Humidity | Pressure | Rain* | Wind** | Luminosity | Snow |
|---|---|---|---|---|---|---|---|
| 1778296203 | 30° C | 70% | 1010 hPa | - | - | - | - |
| 1778292608 | 27.78° C | 78% | 1010 hPa | - | - | - | - |
| 1778289003 | 26.67° C | 83% | 1010 hPa | - | - | - | - |
| 1778285403 | 25° C | 94% | 1009 hPa | - | - | - | - |
| 1778281805 | 25° C | 94% | 1008 hPa | - | - | - | - |
| 1778278207 | 25° C | 94% | 1008 hPa | - | - | - | - |
| 1778274603 | 25° C | 94% | 1007 hPa | - | - | - | - |
| 1778271003 | 25° C | 94% | 1007 hPa | - | - | - | - |
| 1778267402 | 25° C | 94% | 1008 hPa | - | - | - | - |
| 1778263807 | 25° C | 94% | 1009 hPa | - | - | - | - |
| 1778260202 | 25° C | 94% | 1009 hPa | - | - | - | - |
| 1778256603 | 25.56° C | 88% | 1010 hPa | - | - | - | - |
| 1778253002 | 25° C | 94% | 1010 hPa | - | - | - | - |
| 1778249407 | 25° C | 94% | 1009 hPa | - | - | - | - |
| 1778245802 | 25° C | 94% | 1009 hPa | - | - | - | - |
| 1778242202 | 25.56° C | 88% | 1009 hPa | - | - | - | - |
| 1778238602 | 25.56° C | 88% | 1008 hPa | - | - | - | - |
| 1778235006 | 25.56° C | 88% | 1007 hPa | - | - | - | - |
| 1778231402 | 25.56° C | 88% | 1006 hPa | - | - | - | - |
| 1778227801 | 25° C | 94% | 1007 hPa | - | - | - | - |
| 1778225394 | 25.56° C | 88% | 1007 hPa | - | - | - | - |
| 1778224202 | 25.56° C | 88% | 1008 hPa | - | - | - | - |
| 1778221194 | 25.56° C | 88% | 1008 hPa | - | - | - | - |
| 1778220606 | 25.56° C | 88% | 1008 hPa | - | - | - | - |
| 1778217001 | 26.67° C | 83% | 1009 hPa | - | - | - | - |
* Rain since midnight (hover to see other rain measurements)
** Current wind speed in m/s (hover to see current wind gust speed)